createdAt,value
2018-11-03T00:00:21.601Z,11.40
2018-11-03T00:02:51.769Z,9.85
2018-11-03T00:05:22.012Z,10.13
2018-11-03T00:07:52.254Z,9.38
2018-11-03T00:10:44.450Z,9.33
2018-11-03T00:13:42.580Z,9.08
2018-11-03T00:16:13.086Z,9.70
2018-11-03T00:18:43.108Z,10.75
2018-11-03T00:21:13.042Z,9.53
2018-11-03T00:23:43.113Z,9.68
2018-11-03T00:26:47.504Z,9.75
2018-11-03T00:29:54.251Z,9.53
2018-11-03T00:33:04.047Z,10.08
2018-11-03T00:35:40.604Z,10.65
2018-11-03T00:38:40.283Z,9.45
2018-11-03T00:41:11.738Z,9.50
2018-11-03T00:43:41.764Z,10.78
2018-11-03T00:47:10.215Z,9.10
2018-11-03T00:49:50.585Z,8.60
2018-11-03T00:52:20.900Z,8.45
2018-11-03T00:55:06.811Z,10.43
2018-11-03T00:57:36.840Z,8.85
2018-11-03T01:00:10.394Z,9.63
2018-11-03T01:02:46.274Z,9.20
2018-11-03T01:05:58.881Z,10.30
2018-11-03T01:08:29.007Z,10.08
2018-11-03T01:10:59.085Z,8.45
2018-11-03T01:13:30.852Z,8.85
2018-11-03T01:16:01.754Z,8.80
2018-11-03T01:18:55.222Z,8.10
2018-11-03T01:21:25.834Z,8.85
2018-11-03T01:23:56.822Z,10.20
2018-11-03T01:26:29.543Z,9.55
2018-11-03T01:28:59.611Z,9.40
2018-11-03T01:31:30.793Z,10.00
2018-11-03T01:34:01.665Z,9.50
2018-11-03T01:36:31.692Z,10.75
2018-11-03T01:39:01.783Z,10.03
2018-11-03T01:41:58.325Z,9.35
2018-11-03T01:44:28.393Z,8.93
2018-11-03T01:46:58.507Z,9.53
2018-11-03T01:49:28.524Z,8.40
2018-11-03T01:51:58.568Z,9.30
2018-11-03T01:54:57.778Z,8.13
2018-11-03T01:57:27.795Z,8.95
2018-11-03T01:59:57.822Z,9.53
2018-11-03T02:02:29.050Z,9.45
2018-11-03T02:05:01.335Z,9.15
2018-11-03T02:07:31.346Z,10.00
2018-11-03T02:10:01.407Z,8.43
2018-11-03T02:15:49.792Z,9.13
2018-11-03T02:18:19.828Z,8.63
2018-11-03T02:20:49.906Z,9.48
2018-11-03T02:23:26.574Z,8.90
2018-11-03T02:27:10.790Z,9.20
2018-11-03T02:29:42.178Z,8.35
2018-11-03T02:32:12.296Z,8.45
2018-11-03T02:34:43.677Z,9.73
2018-11-03T02:37:14.597Z,9.45
2018-11-03T02:39:45.239Z,9.65
2018-11-03T02:42:15.477Z,9.00
2018-11-03T02:44:45.454Z,9.70
2018-11-03T02:47:16.512Z,10.58
2018-11-03T02:49:46.658Z,9.15
2018-11-03T02:52:16.635Z,9.25
2018-11-03T02:54:46.798Z,10.25
2018-11-03T02:57:16.844Z,11.10
2018-11-03T02:59:46.847Z,10.63
2018-11-03T03:02:17.294Z,8.33
2018-11-03T03:04:47.356Z,9.48
2018-11-03T03:07:17.601Z,9.53
2018-11-03T03:09:47.812Z,9.53
2018-11-03T03:12:17.808Z,9.28
2018-11-03T03:14:47.793Z,9.93
2018-11-03T03:17:20.897Z,9.65
2018-11-03T03:19:50.990Z,9.38
2018-11-03T03:22:20.932Z,9.70
2018-11-03T03:24:50.893Z,8.80
2018-11-03T03:27:21.998Z,9.20
2018-11-03T03:29:53.584Z,9.38
2018-11-03T03:32:23.803Z,8.65
2018-11-03T03:34:53.767Z,8.53
2018-11-03T03:37:23.813Z,8.95
2018-11-03T03:39:53.892Z,9.63
2018-11-03T03:42:24.180Z,8.68
2018-11-03T03:44:54.196Z,8.18
2018-11-03T03:47:24.621Z,8.70
2018-11-03T03:49:54.804Z,8.78
2018-11-03T03:52:24.954Z,8.45
2018-11-03T03:54:55.093Z,9.43
2018-11-03T03:57:25.199Z,9.83
2018-11-03T03:59:55.237Z,10.28
2018-11-03T04:02:25.387Z,11.05
2018-11-03T04:04:55.500Z,10.75
2018-11-03T04:07:25.573Z,11.10
2018-11-03T04:09:55.621Z,11.30
2018-11-03T04:12:25.637Z,11.60
2018-11-03T04:14:55.663Z,10.50
2018-11-03T04:17:25.750Z,11.15
2018-11-03T04:19:55.885Z,11.50
2018-11-03T04:22:26.287Z,11.45
2018-11-03T04:24:56.312Z,10.38
2018-11-03T04:27:26.965Z,11.08
2018-11-03T04:29:56.939Z,10.65
2018-11-03T04:32:27.109Z,10.63
2018-11-03T04:34:57.165Z,10.45
2018-11-03T04:37:27.197Z,9.98
2018-11-03T04:39:57.273Z,10.65
2018-11-03T04:42:27.397Z,11.78
2018-11-03T04:44:57.501Z,11.18
2018-11-03T04:47:27.905Z,10.45
2018-11-03T04:49:58.164Z,10.35
2018-11-03T04:52:28.195Z,10.45
2018-11-03T04:54:58.285Z,10.63
2018-11-03T04:57:28.553Z,13.28
2018-11-03T04:59:58.651Z,12.90
2018-11-03T05:02:28.824Z,11.80
2018-11-03T05:04:58.941Z,11.22
2018-11-03T05:07:29.064Z,10.80
2018-11-03T05:09:59.563Z,9.83
2018-11-03T05:12:29.845Z,10.70
2018-11-03T05:15:00.012Z,10.60
2018-11-03T05:17:30.036Z,10.10
2018-11-03T05:20:00.066Z,11.35
2018-11-03T05:22:30.076Z,10.08
2018-11-03T05:25:00.176Z,10.65
2018-11-03T05:27:30.228Z,11.35
2018-11-03T05:30:00.264Z,10.90
2018-11-03T05:32:30.399Z,12.10
2018-11-03T05:35:00.416Z,11.85
2018-11-03T05:37:30.524Z,11.28
2018-11-03T05:40:00.564Z,11.90
2018-11-03T05:42:30.717Z,12.85
2018-11-03T05:45:00.721Z,12.70
2018-11-03T05:47:30.704Z,12.90
2018-11-03T05:50:00.803Z,14.45
2018-11-03T05:52:30.912Z,13.62
2018-11-03T05:55:01.000Z,13.93
2018-11-03T05:57:31.104Z,13.08
2018-11-03T06:00:01.254Z,13.08
2018-11-03T06:02:31.377Z,12.78
2018-11-03T06:05:01.401Z,12.60
2018-11-03T06:07:31.525Z,12.55
2018-11-03T06:10:01.725Z,13.60
2018-11-03T06:12:31.720Z,13.62
2018-11-03T06:15:02.302Z,11.45
2018-11-03T06:17:32.362Z,11.97
2018-11-03T06:20:02.412Z,12.53
2018-11-03T06:22:32.549Z,13.13
2018-11-03T06:25:02.649Z,12.98
2018-11-03T06:27:32.689Z,12.07
2018-11-03T06:30:02.851Z,14.87
2018-11-03T06:32:33.265Z,12.50
2018-11-03T06:35:03.804Z,13.75
2018-11-03T06:37:34.008Z,13.38
2018-11-03T06:40:04.210Z,13.60
2018-11-03T06:42:34.274Z,13.93
2018-11-03T06:45:05.021Z,13.03
2018-11-03T06:47:38.252Z,14.78
2018-11-03T06:50:09.029Z,14.13
2018-11-03T06:52:39.336Z,12.93
2018-11-03T06:55:09.673Z,14.10
2018-11-03T06:57:39.929Z,15.38
2018-11-03T07:00:14.606Z,15.45
2018-11-03T07:02:44.738Z,14.55
2018-11-03T07:05:14.854Z,14.87
2018-11-03T07:07:49.117Z,15.60
2018-11-03T07:10:19.047Z,14.10
2018-11-03T07:12:49.224Z,14.68
2018-11-03T07:15:19.267Z,16.80
2018-11-03T07:17:49.355Z,15.78
2018-11-03T07:20:19.375Z,16.65
2018-11-03T07:22:49.473Z,16.50
2018-11-03T07:25:19.468Z,16.50
2018-11-03T07:27:53.401Z,17.75
2018-11-03T07:30:23.503Z,17.15
2018-11-03T07:32:53.689Z,19.70
2018-11-03T07:35:23.815Z,19.00
2018-11-03T07:37:53.912Z,17.95
2018-11-03T07:40:23.863Z,19.77
2018-11-03T07:45:36.695Z,18.95
2018-11-03T07:48:06.835Z,21.77
2018-11-03T07:50:36.828Z,20.92
2018-11-03T07:53:10.438Z,21.33
2018-11-03T07:55:41.114Z,21.50
2018-11-03T07:58:12.000Z,21.62
2018-11-03T08:00:42.307Z,27.02
2018-11-03T08:03:12.310Z,24.52
2018-11-03T08:05:42.367Z,25.90
2018-11-03T08:08:13.349Z,25.85
2018-11-03T08:10:43.408Z,25.92
2018-11-03T08:13:13.498Z,26.70
2018-11-03T08:15:43.721Z,27.22
2018-11-03T08:18:13.775Z,24.52
2018-11-03T08:20:44.024Z,26.45
2018-11-03T08:23:14.861Z,27.37
2018-11-03T08:25:45.149Z,27.00
2018-11-03T08:28:15.135Z,29.95
2018-11-03T08:30:45.195Z,30.60
2018-11-03T08:33:15.289Z,30.10
2018-11-03T08:35:56.641Z,30.50
2018-11-03T08:38:36.532Z,29.30
2018-11-03T08:41:12.182Z,28.17
2018-11-03T08:43:53.704Z,27.37
2018-11-03T08:46:25.440Z,29.20
2018-11-03T08:48:55.737Z,28.50
2018-11-03T08:51:25.936Z,30.10
2018-11-03T08:53:55.911Z,30.05
2018-11-03T08:56:26.058Z,27.90
2018-11-03T08:58:56.093Z,30.80
2018-11-03T09:01:26.546Z,30.27
2018-11-03T09:03:56.580Z,31.07
2018-11-03T09:06:26.690Z,29.52
2018-11-03T09:08:56.655Z,29.30
2018-11-03T09:11:26.910Z,28.55
2018-11-03T09:13:56.940Z,27.30
2018-11-03T09:16:27.001Z,28.40
2018-11-03T09:18:57.033Z,28.32
2018-11-03T09:21:27.048Z,29.15
2018-11-03T09:23:57.085Z,27.82
2018-11-03T09:26:27.078Z,24.87
2018-11-03T09:28:57.239Z,25.40
2018-11-03T09:31:27.265Z,23.22
2018-11-03T09:33:57.381Z,24.80
2018-11-03T09:36:27.367Z,22.67
2018-11-03T09:38:57.457Z,23.65
2018-11-03T09:41:27.474Z,22.48
2018-11-03T09:43:57.477Z,23.60
2018-11-03T09:46:27.905Z,21.87
2018-11-03T09:48:57.944Z,21.10
2018-11-03T09:51:28.148Z,20.88
2018-11-03T09:53:58.108Z,21.37
2018-11-03T09:56:28.238Z,21.17
2018-11-03T09:58:58.341Z,20.83
2018-11-03T10:01:28.378Z,19.67
2018-11-03T10:03:58.425Z,20.07
2018-11-03T10:06:28.539Z,20.07
2018-11-03T10:08:58.636Z,19.00
2018-11-03T10:11:28.672Z,19.73
2018-11-03T10:13:58.838Z,18.47
2018-11-03T10:16:28.825Z,17.90
2018-11-03T10:18:58.856Z,16.40
2018-11-03T10:21:28.924Z,17.30
2018-11-03T10:23:58.898Z,17.37
2018-11-03T10:26:28.957Z,17.20
2018-11-03T10:28:58.912Z,15.93
2018-11-03T10:31:29.038Z,16.13
2018-11-03T10:33:59.354Z,17.10
2018-11-03T10:36:29.409Z,14.03
2018-11-03T10:38:59.655Z,15.40
2018-11-03T10:41:29.691Z,14.20
2018-11-03T10:43:59.776Z,12.40
2018-11-03T10:46:30.082Z,11.93
2018-11-03T10:48:59.992Z,13.27
2018-11-03T10:51:29.987Z,12.87
2018-11-03T10:54:00.164Z,12.07
2018-11-03T10:56:30.229Z,12.10
2018-11-03T10:59:00.296Z,10.10
2018-11-03T11:01:35.410Z,9.90
2018-11-03T11:04:10.393Z,9.37
2018-11-03T11:06:45.448Z,8.63
2018-11-03T11:09:20.388Z,5.90
2018-11-03T11:11:55.525Z,6.70
2018-11-03T11:14:25.699Z,6.10
2018-11-03T11:16:55.716Z,6.60
2018-11-03T11:19:25.608Z,6.43
2018-11-03T11:21:55.563Z,7.40
2018-11-03T11:24:25.739Z,6.93
2018-11-03T11:26:55.754Z,7.87
2018-11-03T11:29:38.445Z,6.40
2018-11-03T11:32:08.609Z,5.80
2018-11-03T11:34:38.806Z,5.30
2018-11-03T11:37:08.945Z,5.30
2018-11-03T11:39:38.957Z,4.30
2018-11-03T11:42:09.953Z,5.27
2018-11-03T11:44:39.992Z,3.40
2018-11-03T11:47:10.586Z,3.97
2018-11-03T11:49:40.806Z,4.10
2018-11-03T11:52:10.861Z,4.20
2018-11-03T11:54:40.924Z,3.57
2018-11-03T11:57:10.876Z,4.03
2018-11-03T11:59:41.211Z,3.37
2018-11-03T12:02:11.309Z,3.97
2018-11-03T12:04:41.688Z,3.40
2018-11-03T12:07:11.807Z,3.37
2018-11-03T12:09:41.916Z,4.23
2018-11-03T12:12:11.982Z,3.97
2018-11-03T12:14:42.008Z,3.57
2018-11-03T12:17:12.095Z,4.60
2018-11-03T12:19:42.092Z,3.73
2018-11-03T12:22:13.527Z,3.47
2018-11-03T12:24:43.507Z,3.93
2018-11-03T12:27:13.458Z,3.30
2018-11-03T12:29:43.550Z,3.40
2018-11-03T12:32:13.588Z,3.10
2018-11-03T12:34:43.655Z,4.13
2018-11-03T12:50:32.204Z,4.37
2018-11-03T12:53:03.065Z,3.43
2018-11-03T12:55:33.249Z,3.83
2018-11-03T12:58:03.281Z,4.07
2018-11-03T13:00:33.301Z,5.00
2018-11-03T13:03:03.399Z,4.27
2018-11-03T13:05:33.679Z,4.60
2018-11-03T13:08:26.032Z,4.30
2018-11-03T13:10:56.499Z,4.97
2018-11-03T13:13:26.647Z,5.00
2018-11-03T13:15:56.832Z,4.20
2018-11-03T13:18:34.118Z,4.33
2018-11-03T13:21:21.911Z,4.43
2018-11-03T13:23:57.225Z,4.77
2018-11-03T13:26:27.404Z,5.93
2018-11-03T13:30:00.421Z,5.23
2018-11-03T13:32:50.437Z,5.33
2018-11-03T13:35:20.672Z,4.33
2018-11-03T13:37:50.702Z,5.03
2018-11-03T13:40:27.998Z,5.17
2018-11-03T13:43:01.508Z,5.30
2018-11-03T13:45:35.406Z,4.50
2018-11-03T13:48:05.669Z,5.60
2018-11-03T13:50:35.872Z,4.37
2018-11-03T13:53:08.073Z,4.53
2018-11-03T13:55:38.482Z,4.30
2018-11-03T13:58:08.715Z,2.80
2018-11-03T14:00:39.928Z,2.93
2018-11-03T14:03:10.058Z,3.23
2018-11-03T14:05:40.169Z,3.03
2018-11-03T14:08:10.227Z,3.40
2018-11-03T14:10:40.301Z,2.30
2018-11-03T14:13:10.350Z,2.33
2018-11-03T14:15:40.685Z,2.30
2018-11-03T14:18:10.660Z,2.27
2018-11-03T14:20:40.706Z,2.83
2018-11-03T14:23:10.835Z,1.97
2018-11-03T14:25:40.899Z,1.80
2018-11-03T14:28:13.123Z,2.17
2018-11-03T14:30:44.327Z,2.93
2018-11-03T14:33:14.392Z,2.10
2018-11-03T14:35:45.435Z,2.23
2018-11-03T14:38:15.692Z,3.00
2018-11-03T14:40:45.797Z,2.03
2018-11-03T14:43:17.350Z,2.30
2018-11-03T14:45:47.353Z,2.10
2018-11-03T14:48:41.990Z,2.20
2018-11-03T14:51:15.751Z,1.97
2018-11-03T15:12:35.073Z,5.50
2018-11-03T15:15:05.282Z,5.40
2018-11-03T15:17:35.405Z,4.60
2018-11-03T15:20:06.387Z,3.30
2018-11-03T15:22:37.015Z,3.17
2018-11-03T15:25:07.989Z,3.20
2018-11-03T15:27:47.051Z,3.37
2018-11-03T15:30:17.080Z,3.70
2018-11-03T15:32:47.240Z,3.90
2018-11-03T15:35:17.365Z,4.00
2018-11-03T15:37:47.364Z,4.63
2018-11-03T15:40:17.863Z,3.73
2018-11-03T15:42:47.832Z,3.83
2018-11-03T15:45:18.567Z,4.57
2018-11-03T15:47:48.600Z,5.40
2018-11-03T15:50:18.490Z,6.07
2018-11-03T15:52:48.329Z,4.03
2018-11-03T15:55:18.215Z,5.10
2018-11-03T15:57:48.745Z,4.33
2018-11-03T16:00:21.957Z,4.90
2018-11-03T16:03:22.188Z,4.70
2018-11-03T16:05:52.269Z,4.63
2018-11-03T16:08:22.268Z,4.37
2018-11-03T16:11:27.182Z,4.57
2018-11-03T16:13:57.328Z,4.90
2018-11-03T16:16:32.517Z,5.67
2018-11-03T16:19:03.415Z,5.60
2018-11-03T16:21:33.400Z,6.47
2018-11-03T16:24:03.336Z,6.93
2018-11-03T16:26:33.454Z,7.50
2018-11-03T16:29:03.416Z,7.20
2018-11-03T16:31:33.462Z,6.77
2018-11-03T16:34:03.556Z,7.17
2018-11-03T16:36:33.694Z,6.67
2018-11-03T16:39:04.800Z,10.40
2018-11-03T16:41:34.833Z,9.20
2018-11-03T16:44:05.016Z,9.33
2018-11-03T16:46:35.430Z,8.73
2018-11-03T16:49:08.029Z,8.87
2018-11-03T16:51:38.193Z,8.30
2018-11-03T16:54:08.324Z,8.67
2018-11-03T16:56:54.662Z,7.80
2018-11-03T16:59:29.506Z,7.80
2018-11-03T17:01:59.864Z,8.13
2018-11-03T17:04:30.899Z,8.23
2018-11-03T17:07:00.927Z,7.70
2018-11-03T17:09:32.162Z,8.63
2018-11-03T17:12:02.267Z,7.67
2018-11-03T17:14:32.617Z,9.00
2018-11-03T17:17:10.763Z,9.90
2018-11-03T17:19:43.462Z,12.07
2018-11-03T17:22:13.814Z,11.43
2018-11-03T17:27:53.636Z,11.50
2018-11-03T17:30:26.313Z,10.93
2018-11-03T17:32:56.808Z,10.50
2018-11-03T17:35:27.038Z,10.10
2018-11-03T17:37:57.583Z,11.20
2018-11-03T17:40:27.668Z,12.67
2018-11-03T17:42:57.823Z,12.87
2018-11-03T17:45:28.075Z,11.80
2018-11-03T17:47:58.104Z,12.25
2018-11-03T17:50:56.848Z,11.50
2018-11-03T17:53:27.194Z,12.63
2018-11-03T17:55:57.317Z,12.10
2018-11-03T17:58:44.754Z,11.08
2018-11-03T18:07:34.207Z,13.28
2018-11-03T18:10:12.035Z,12.50
2018-11-03T18:12:42.810Z,13.40
2018-11-03T18:15:17.057Z,18.23
2018-11-03T18:17:48.804Z,25.52
2018-11-03T18:20:19.246Z,18.80
2018-11-03T18:22:49.765Z,16.52
2018-11-03T18:28:23.972Z,16.75
2018-11-03T18:30:54.821Z,16.90
2018-11-03T18:36:40.591Z,15.93
2018-11-03T18:39:11.593Z,16.48
2018-11-03T18:41:43.593Z,15.75
2018-11-03T18:44:43.474Z,15.53
2018-11-03T18:47:23.804Z,14.40
2018-11-03T18:49:57.536Z,15.40
2018-11-03T18:52:28.377Z,15.45
2018-11-03T18:55:00.007Z,19.02
2018-11-03T18:57:30.168Z,19.48
2018-11-03T19:00:19.877Z,15.75
2018-11-03T19:02:52.691Z,14.38
2018-11-03T19:05:26.183Z,12.47
2018-11-03T19:08:09.057Z,14.10
2018-11-03T19:10:47.536Z,14.20
2018-11-03T19:16:30.873Z,14.43
2018-11-03T19:25:13.826Z,13.38
2018-11-03T19:27:44.081Z,13.38
2018-11-03T19:30:19.244Z,13.55
2018-11-03T19:32:49.635Z,13.35
2018-11-03T19:38:30.095Z,15.38
2018-11-03T19:41:20.633Z,14.93
2018-11-03T19:43:58.839Z,15.55
2018-11-03T19:46:29.140Z,19.23
2018-11-03T19:49:17.692Z,16.07
2018-11-03T19:51:48.080Z,15.48
2018-11-03T20:00:36.872Z,13.30
2018-11-03T20:03:08.273Z,14.28
2018-11-03T20:05:56.894Z,13.13
2018-11-03T20:11:33.610Z,13.38
2018-11-03T20:17:16.151Z,15.95
2018-11-03T20:23:08.248Z,15.32
2018-11-03T20:25:39.182Z,16.55
2018-11-03T20:28:12.860Z,16.12
2018-11-03T20:30:43.754Z,13.05
2018-11-03T20:33:26.087Z,15.05
2018-11-03T20:39:11.205Z,16.05
2018-11-03T20:41:46.888Z,13.15
2018-11-03T20:44:16.980Z,13.30
2018-11-03T20:49:47.437Z,12.15
2018-11-03T20:52:35.508Z,13.80
2018-11-03T20:58:31.926Z,13.83
2018-11-03T21:01:12.226Z,13.68
2018-11-03T21:03:44.652Z,12.85
2018-11-03T21:12:19.943Z,14.33
2018-11-03T21:14:50.535Z,13.00
2018-11-03T21:20:55.419Z,13.00
2018-11-03T21:23:51.473Z,12.88
2018-11-03T21:30:22.907Z,13.15
2018-11-03T21:32:53.079Z,13.22
2018-11-03T21:35:23.059Z,12.90
2018-11-03T21:38:10.556Z,13.65
2018-11-03T21:54:46.230Z,12.90
2018-11-03T22:00:22.685Z,13.83
2018-11-03T22:02:52.973Z,13.15
2018-11-03T22:05:29.805Z,14.75
2018-11-03T22:08:01.745Z,13.10
2018-11-03T22:10:33.969Z,12.68
2018-11-03T22:13:04.068Z,13.55
2018-11-03T22:19:00.974Z,13.43
2018-11-03T22:21:31.715Z,13.38
2018-11-03T22:24:02.370Z,12.98
2018-11-03T22:35:19.297Z,12.18
2018-11-03T22:41:48.744Z,13.08
2018-11-03T22:44:19.014Z,12.98
2018-11-03T22:46:54.609Z,13.15
2018-11-03T22:55:27.691Z,14.07
2018-11-03T22:57:57.790Z,12.50
2018-11-03T23:00:28.114Z,13.88
2018-11-03T23:03:06.281Z,13.25
2018-11-03T23:05:45.998Z,15.58
2018-11-03T23:08:21.526Z,14.47
2018-11-03T23:10:51.621Z,15.60
2018-11-03T23:13:21.815Z,16.55
2018-11-03T23:15:55.254Z,14.07
2018-11-03T23:18:25.555Z,13.88
2018-11-03T23:21:08.041Z,16.70
2018-11-03T23:23:38.174Z,16.85
2018-11-03T23:26:40.034Z,19.87
2018-11-03T23:29:10.267Z,16.55
2018-11-03T23:31:43.329Z,20.50
2018-11-03T23:34:13.224Z,20.70
2018-11-03T23:39:53.252Z,17.27
2018-11-03T23:42:23.472Z,16.95
2018-11-03T23:44:53.462Z,17.32
2018-11-03T23:47:24.811Z,17.62
2018-11-03T23:49:55.140Z,21.05
2018-11-03T23:52:30.048Z,19.60
2018-11-03T23:55:01.633Z,19.65
2018-11-03T23:57:32.147Z,19.48
